• Join FlightAware (Why Join?)
  • Login
  • US Flag 
08:31PM EDT


 

Airport Tracker/Info


-or-


 

Live Flight TrackerFlight Track Log ✈ UAL5915 ✈ 26-Apr-2013 ✈ KTUL - KIAD

Flight Track Log - Related Links

Times and Time Zones

All times are in EDT time to prevent confusion due to time zone crossing. See the UAL5915 flight status page for this flight to view local times or setup timezone preferences in your user account.

Time Position Orientation Groundspeed Altitude Reporting Facility
EDT Latitude Longitude Course Direction KTS MPH feet Rate Location/Type
02:40PM 36.1956 -95.8686 92° East 151 174 1,300  Level Kansas City Center
02:41PM 36.1933 -95.7911 92° East 205 236 4,200 2,040 Climbing Kansas City Center
02:42PM 36.1792 -95.7228 104° East 244 281 5,600 2,040 Climbing Kansas City Center
02:42PM 36.1717 -95.6878 105° East 296 341 6,500 3,300 Climbing Kansas City Center
02:43PM 36.1581 -95.6283 106° East 280 322 9,000 2,760 Climbing Kansas City Center
02:44PM 36.1375 -95.5344 105° East 284 327 11,600 2,460 Climbing Kansas City Center
02:45PM 36.1111 -95.4064 104° East 323 372 14,100 2,160 Climbing Kansas City Center
02:46PM 36.0878 -95.2981 105° East 340 391 16,000 1,680 Climbing Kansas City Center
02:47PM 36.0589 -95.1703 106° East 363 418 17,700 1,560 Climbing Kansas City Center
02:48PM 36.0297 -95.0375 105° East 394 453 19,300 1,500 Climbing Kansas City Center
02:49PM 36.0244 -94.8919 93° East 419 482 20,800 1,440 Climbing Kansas City Center
02:50PM 36.0306 -94.7394 87° East 439 505 22,400 1,740 Climbing Kansas City Center
02:51PM 36.0358 -94.5589 88° East 441 507 24,500 1,920 Climbing Memphis Center
02:52PM 36.0408 -94.4050 88° East 441 507 26,300 1,800 Climbing Memphis Center
02:53PM 36.0458 -94.2514 88° East 441 507 28,100 1,800 Climbing Memphis Center
02:54PM 36.0483 -94.1025 89° East 441 507 29,900 1,680 Climbing Memphis Center
02:55PM 36.0544 -93.9667 87° East 441 507 31,500 1,680 Climbing Memphis Center
02:56PM 36.0586 -93.8181 88° East 436 502 33,300 1,740 Climbing Memphis Center
02:57PM 36.0644 -93.6744 87° East 430 495 35,000 1,320 Climbing Memphis Center
02:58PM 36.0661 -93.5308 89° East 424 488 36,000 900 Climbing Memphis Center
02:59PM 36.0719 -93.3847 87° East 419 482 36,900 480 Climbing Memphis Center
03:00PM 36.0775 -93.2358 87° East 425 489 37,000  Climbing Memphis Center
03:01PM 36.0811 -93.0742 88° East 443 510 37,000  Level Memphis Center
03:02PM 36.0847 -92.9100 88° East 464 534 37,000  Level Memphis Center
03:03PM 36.0881 -92.7406 89° East 477 549 37,000  Level Memphis Center
03:04PM 36.0911 -92.5658 89° East 489 563 37,000  Level Memphis Center
03:05PM 36.0942 -92.3939 89° East 495 570 37,000  Level Memphis Center
03:06PM 36.0969 -92.2064 89° East 495 570 37,000  Level Memphis Center
03:07PM 36.0950 -92.0550 91° East 495 570 37,000  Level Memphis Center
03:08PM 36.0972 -91.8803 89° East 495 570 37,000  Level Memphis Center
03:09PM 36.0992 -91.7158 89° East 495 570 37,000  Level Memphis Center
03:10PM 36.1031 -91.5489 88° East 490 564 37,000  Level Memphis Center
03:11PM 36.1044 -91.3819 89° East 485 558 37,000  Level Memphis Center
03:12PM 36.1014 -91.2150 91° East 479 551 37,000  Level Memphis Center
03:13PM 36.1086 -91.0583 87° East 474 545 37,000  Level Memphis Center
03:14PM 36.1094 -90.8992 90° East 469 540 37,000  Level Memphis Center
03:15PM 36.1100 -90.7372 90° East 464 534 37,000  Level Memphis Center
03:16PM 36.1167 -90.5753 87° East 464 534 37,000  Level Memphis Center
03:17PM 36.1189 -90.4161 89° East 464 534 37,000  Level Memphis Center
03:18PM 36.1211 -90.2492 89° East 469 540 37,000  Level Memphis Center
03:19PM 36.1250 -90.0847 88° East 475 547 37,000  Level Memphis Center
03:20PM 36.1286 -89.9097 88° East 487 560 37,000  Level Memphis Center
03:21PM 36.1300 -89.7403 89° East 493 567 37,000  Level Memphis Center
03:22PM 36.1311 -89.5628 90° East 504 580 37,000  Level Memphis Center
03:23PM 36.1319 -89.3831 90° East 515 593 37,000  Level Memphis Center
03:24PM 36.1344 -89.2006 89° East 520 598 37,000  Level Memphis Center
03:25PM 36.1386 -88.9975 88° East 528 608 37,000  Level Memphis Center
03:26PM 36.1408 -88.8225 89° East 528 608 37,000  Level Memphis Center
03:27PM 36.1425 -88.6503 89° East 516 594 37,000  Level Memphis Center
03:28PM 36.1442 -88.4756 89° East 510 587 37,000  Level Memphis Center
03:29PM 36.1456 -88.3008 89° East 510 587 37,000  Level Memphis Center
03:30PM 36.1556 -88.1567 85° East 510 587 37,000  Level Memphis Center
03:31PM 36.2189 -87.9697 67° East 495 570 37,000  Level Memphis Center
03:32PM 36.2764 -87.8136 65° Northeast 500 575 37,000  Level Memphis Center
03:33PM 36.3375 -87.6519 65° Northeast 500 575 37,000  Level Memphis Center
03:34PM 36.3986 -87.4900 65° Northeast 510 587 37,000  Level Memphis Center
03:35PM 36.4572 -87.3331 65° Northeast 506 582 37,000  Level Memphis Center
03:36PM 36.5200 -87.1733 64° Northeast 512 589 37,000  Level Memphis Center
03:37PM 36.5725 -87.0289 66° East 512 589 37,000  Level Memphis Center
03:38PM 36.6325 -86.8661 65° Northeast 512 589 37,000  Level Memphis Center
03:39PM 36.6906 -86.7033 66° East 512 589 37,000  Level Memphis Center
03:40PM 36.7503 -86.5400 65° Northeast 507 583 37,000  Level Memphis Center
03:41PM 36.8114 -86.3636 67° East 507 583 37,000  Level Memphis Center
03:42PM 36.8725 -86.1997 65° Northeast 507 583 37,000  Level Memphis Center
03:44PM 36.9861 -85.8789 66° East 514 592 37,000  Level Indianapolis Center
03:45PM 37.0456 -85.7128 66° East 515 593 37,000  Level Indianapolis Center
03:46PM 37.1131 -85.5189 66° East 515 593 37,000  Level Indianapolis Center
03:47PM 37.1661 -85.3689 66° East 514 592 37,000  Level Indianapolis Center
03:48PM 37.2328 -85.1794 66° East 511 588 37,000  Level Indianapolis Center
03:49PM 37.2878 -85.0150 67° East 511 588 37,000  Level Indianapolis Center
03:50PM 37.3450 -84.8525 66° East 508 585 37,000  Level Indianapolis Center
03:51PM 37.4008 -84.6886 67° East 509 586 37,000  Level Indianapolis Center
03:52PM 37.4564 -84.5261 67° East 508 585 37,000  Level Indianapolis Center
03:53PM 37.5108 -84.3653 67° East 500 575 37,000  Level Indianapolis Center
03:55PM 37.5739 -84.1750 67° East 502 578 37,000  Level Indianapolis Center
03:56PM 37.6303 -84.0125 66° East 503 579 37,000  Level Indianapolis Center
03:57PM 37.6836 -83.8494 68° East 502 578 37,000  Level Indianapolis Center
03:58PM 37.7372 -83.6844 68° East 503 579 37,000  Level Indianapolis Center
03:59PM 37.7922 -83.5211 67° East 503 579 37,000  Level Indianapolis Center
04:00PM 37.8461 -83.3564 67° East 505 581 37,000  Level Indianapolis Center
04:01PM 37.9089 -83.1622 68° East 508 585 37,000  Level Indianapolis Center
04:02PM 37.9625 -82.9997 67° East 499 574 37,000  Level Indianapolis Center
04:03PM 38.0153 -82.8283 69° East 515 593 37,000 -300 Level Indianapolis Center
04:04PM 38.0697 -82.6625 67° East 510 587 36,400 -660 Descending Indianapolis Center
04:05PM 38.1283 -82.4764 68° East 516 594 35,700 -720 Descending Indianapolis Center
04:06PM 38.1814 -82.3072 68° East 517 595 35,000 -360 Descending Indianapolis Center
04:07PM 38.2339 -82.1417 68° East 509 586 35,000  Level Indianapolis Center
04:08PM 38.2881 -81.9742 68° East 512 589 35,000  Level Indianapolis Center
04:09PM 38.3400 -81.8014 69° East 524 603 35,000  Level Indianapolis Center
04:10PM 38.3439 -81.5728 89° East 546 628 35,000  Level Indianapolis Center
04:11PM 38.3381 -81.3806 92° East 550 633 35,000 -540 Level Indianapolis Center
04:12PM 38.3303 -81.1883 93° East 549 632 34,000 -1,020 Descending Indianapolis Center
04:13PM 38.3258 -81.0653 93° East 543 625 33,300 -600 Descending Washington Center
04:14PM 38.3175 -80.8794 93° East 538 619 33,000 -180 Descending Washington Center
04:15PM 38.3108 -80.6964 93° East 533 613 33,000  Level Washington Center
04:16PM 38.3164 -80.5114 88° East 533 613 33,000 -480 Level Washington Center
04:17PM 38.3597 -80.3131 74° East 518 596 32,100 -900 Descending Washington Center
04:18PM 38.3942 -80.1244 77° East 523 602 31,200 -1,020 Descending Washington Center
04:19PM 38.4300 -79.9439 76° East 528 608 30,200 -1,500 Descending Washington Center
04:20PM 38.4656 -79.7656 76° East 528 608 28,300 -1,980 Descending Washington Center
04:21PM 38.4986 -79.5922 76° East 518 596 26,300 -2,100 Descending Washington Center
04:22PM 38.5267 -79.4372 77° East 507 583 24,100 -1,440 Descending Washington Center
04:23PM 38.5500 -79.2897 79° East 464 534 23,500 -1,500 Descending Washington Center
04:24PM 38.5758 -79.1239 79° East 444 511 21,200 -2,160 Descending Washington Center
04:25PM 38.6031 -78.9789 76° East 425 489 19,200 -1,800 Descending Washington Center
04:26PM 38.6256 -78.8417 78° East 412 474 17,600 -1,620 Descending Washington Center
04:27PM 38.6539 -78.7153 74° East 389 448 16,000 -1,740 Descending Washington Center
04:28PM 38.6822 -78.5861 74° East 375 432 14,200 -1,920 Descending Washington Center
04:29PM 38.7122 -78.4650 72° East 370 426 12,200 -2,040 Descending Washington Center
04:30PM 38.7483 -78.3547 67° East 342 394 10,200 -1,620 Descending Washington Center
04:31PM 38.8042 -78.2794 46° Northeast 308 354 9,000 -660 Descending Washington Center
04:32PM 38.8517 -78.2092 49° Northeast 295 339 9,000 -720 Level Washington Center
04:33PM 38.8786 -78.1194 69° East 277 319 7,600 -1,140 Descending Washington Center
04:34PM 38.8992 -78.0294 74° East 263 303 6,800 -840 Descending Washington Center
04:35PM 38.9219 -77.9369 72° East 263 303 6,000 -420 Descending Washington Center
04:36PM 38.9467 -77.8389 72° East 263 303 6,000  Level Washington Center
04:37PM 38.9628 -77.7461 77° East 263 303 6,000  Level Washington Center
04:38PM 38.9522 -77.6497 98° East 257 296 6,000  Level Washington Center
04:39PM 38.9000 -77.6000 143° Southeast 227 261 6,000 -480 Level Potomac TRACON
04:40PM 38.8500 -77.5667 153° Southeast 236 272 5,200 -900 Descending Potomac TRACON
04:41PM 38.8000 -77.5333 153° Southeast 236 272 4,200 -1,200 Descending Potomac TRACON
04:42PM 38.8167 -77.4667 72° East 223 257 2,800 -1,320 Descending Potomac TRACON
04:43PM 38.8667 -77.4667 360° North 162 186 1,800 -900 Descending Potomac TRACON
04:44PM 38.9000 -77.4667 360° North 137 158 1,100 -720 Descending Potomac TRACON
04:46PM 38.9333 -77.4500 165° South  Level FlightAware Approximate
04:53PM 38.9474 -77.4599 165° South  Level Estimated
04:54PM 38.9474 -77.4599 165° South  Level Estimated